Time;durP1;ratioP1;P1;durP2;ratioP2;P2;SDS_P1;SDS_P2;PMS_P1;PMS_P2;Temp;Humidity;BMP_temperature;BMP_pressure;BME280_temperature;BME280_humidity;BME280_pressure;Samples;Min_cycle;Max_cycle;Signal;HPM_P1;HPM_P2
2022/01/20 00:00:53;;;;;;;22.83;10.83;;;;;;;-3.07;100.00;60485.94;5074997;28;20491;-74
2022/01/20 00:03:30;;;;;;;20.48;9.52;;;;;;;-4.43;100.00;60347.97;5075104;28;20486;-74
2022/01/20 00:06:48;;;;;;;26.33;9.98;;;;;;;-3.32;100.00;60461.50;5072785;28;20204;-76
2022/01/20 00:28:40;;;;;;;26.05;9.25;;;;;;;-3.52;100.00;60435.97;5039545;28;20694;-76
2022/01/20 00:31:25;;;;;;;28.30;10.83;;;;;;;-5.58;100.00;60225.38;5075737;28;20279;-75
2022/01/20 00:33:57;;;;;;;22.45;9.95;;;;;;;-3.51;100.00;60439.50;5075240;28;20461;-74
2022/01/20 00:39:12;;;;;;;18.80;9.60;;;;;;;-3.48;100.00;60442.66;5076252;28;20195;-73
2022/01/20 00:41:40;;;;;;;22.38;9.95;;;;;;;-3.43;100.00;60445.44;5075885;28;20478;-75
2022/01/20 00:44:09;;;;;;;21.60;9.75;;;;;;;-3.34;100.00;60459.94;5075651;28;20690;-74
2022/01/20 00:46:39;;;;;;;30.48;10.60;;;;;;;-4.68;100.00;60311.66;5074494;28;20205;-74
2022/01/20 00:49:11;;;;;;;22.90;9.68;;;;;;;-3.39;100.00;60454.13;5075651;28;20196;-75
2022/01/20 00:51:41;;;;;;;26.05;9.93;;;;;;;-3.38;100.00;60450.72;5074282;28;20216;-75
2022/01/20 00:56:50;;;;;;;32.10;9.98;;;;;;;-4.77;100.00;60315.13;5075217;28;20674;-74
2022/01/20 00:59:20;;;;;;;20.52;9.35;;;;;;;-4.52;100.00;60331.53;5074909;28;20207;-74
2022/01/20 01:01:49;;;;;;;103.28;33.85;;;;;;;-3.49;100.00;60439.13;5075472;28;20227;-75
2022/01/20 01:04:17;;;;;;;60.83;21.17;;;;;;;-3.62;100.00;60430.38;5075029;28;20644;-75
2022/01/20 01:09:34;;;;;;;38.55;14.73;;;;;;;-3.96;100.00;60390.06;5075206;28;20251;-73
2022/01/20 01:12:05;;;;;;;42.40;16.60;;;;;;;-4.81;100.00;60305.97;5074177;28;20192;-75
2022/01/20 01:20:18;;;;;;;28.17;11.27;;;;;;;-4.90;100.00;60290.97;5075437;28;20257;-77
2022/01/20 01:22:49;;;;;;;24.13;10.25;;;;;;;-3.60;100.00;60428.03;5074858;28;20225;-76
2022/01/20 01:25:18;;;;;;;26.02;11.13;;;;;;;-3.72;100.00;60415.38;5074785;28;20197;-76
2022/01/20 01:27:52;;;;;;;54.17;20.48;;;;;;;-3.78;100.00;60409.03;5074889;28;20359;-74
2022/01/20 01:30:35;;;;;;;93.17;32.13;;;;;;;-3.78;100.00;60414.00;5074584;28;20193;-74
2022/01/20 01:33:07;;;;;;;35.58;16.73;;;;;;;-3.72;100.00;60414.84;5074575;28;20427;-76
2022/01/20 01:35:41;;;;;;;66.10;29.27;;;;;;;-4.26;100.00;60363.38;5074674;28;20196;-73
2022/01/20 01:38:35;;;;;;;43.90;17.50;;;;;;;-4.03;100.00;60382.16;5074266;28;20240;-76
2022/01/20 01:41:11;;;;;;;52.38;22.45;;;;;;;-5.48;100.00;60237.84;5074305;28;20455;-76
2022/01/20 01:43:41;;;;;;;45.88;18.23;;;;;;;-4.40;100.00;60348.63;5073230;28;20236;-73
2022/01/20 01:46:11;;;;;;;48.88;20.17;;;;;;;-4.58;100.00;60330.19;5074645;28;20210;-75
2022/01/20 01:48:40;;;;;;;51.50;20.27;;;;;;;-4.64;100.00;60313.94;5075089;28;20227;-76
2022/01/20 01:51:07;;;;;;;57.95;21.55;;;;;;;-4.34;100.00;60353.00;5074415;28;20254;-74
2022/01/20 01:53:41;;;;;;;73.45;27.75;;;;;;;-4.65;100.00;60319.81;5074194;28;20203;-76
2022/01/20 01:56:10;;;;;;;65.32;23.90;;;;;;;-4.31;100.00;60356.19;5074130;28;20311;-76
2022/01/20 01:58:48;;;;;;;52.88;21.55;;;;;;;-5.70;100.00;60207.25;5074298;28;20204;-75
2022/01/20 02:01:31;;;;;;;44.72;19.40;;;;;;;-5.80;100.00;60201.69;5074459;28;20227;-76
2022/01/20 02:04:08;;;;;;;179.48;50.97;;;;;;;-4.43;100.00;60345.47;5074053;28;20211;-75
2022/01/20 02:17:45;;;;;;;68.93;25.20;;;;;;;-4.55;100.00;60333.34;5079491;28;20254;-75
2022/01/20 02:18:12;;;;;;;69.03;25.60;;;;;;;-6.21;100.00;60154.66;5073993;28;20203;-75
2022/01/20 02:20:45;;;;;;;60.80;22.67;;;;;;;-4.91;100.00;60294.88;5073860;28;20192;-75
2022/01/20 02:23:13;;;;;;;49.40;21.08;;;;;;;-4.92;100.00;60291.88;5072607;28;20238;-75
2022/01/20 02:25:47;;;;;;;53.97;22.75;;;;;;;-5.71;100.00;60209.19;5073353;28;20208;-75
2022/01/20 02:28:16;;;;;;;53.75;21.00;;;;;;;-4.83;100.00;60298.88;5074096;28;20227;-75
2022/01/20 02:30:44;;;;;;;47.72;19.75;;;;;;;-6.46;100.00;60133.31;5073694;28;20749;-74
2022/01/20 02:33:18;;;;;;;43.70;20.48;;;;;;;-4.71;100.00;60311.53;5072414;28;20204;-74
2022/01/20 02:35:55;;;;;;;53.22;21.08;;;;;;;-5.21;100.00;60263.81;5073780;28;20192;-76
2022/01/20 02:38:29;;;;;;;59.15;22.08;;;;;;;-4.79;100.00;60303.09;5073294;28;20235;-74
2022/01/20 02:46:36;;;;;;;85.43;28.38;;;;;;;-4.82;100.00;60299.94;5072755;28;20326;-74
2022/01/20 02:49:03;;;;;;;77.85;28.88;;;;;;;-4.80;100.00;60307.00;5073234;28;20200;-76
2022/01/20 02:51:33;;;;;;;59.38;25.13;;;;;;;-6.18;100.00;60157.81;5073296;28;20216;-76
2022/01/20 02:54:03;;;;;;;57.38;21.95;;;;;;;-6.30;100.00;60147.69;5072858;28;20200;-75
2022/01/20 02:56:34;;;;;;;66.47;22.20;;;;;;;-4.94;100.00;60291.72;5073345;28;20204;-76
2022/01/20 02:59:04;;;;;;;44.88;16.23;;;;;;;-4.63;100.00;60319.44;5073064;28;20212;-75
2022/01/20 03:01:33;;;;;;;35.58;15.45;;;;;;;-4.55;100.00;60327.84;5072938;28;20242;-73
2022/01/20 03:04:02;;;;;;;41.97;15.98;;;;;;;-5.69;100.00;60208.31;5072760;28;20238;-76
2022/01/20 03:06:32;;;;;;;40.58;16.17;;;;;;;-4.45;100.00;60343.91;5072484;28;20578;-73
2022/01/20 03:09:01;;;;;;;44.00;18.02;;;;;;;-4.68;100.00;60319.66;5072751;28;20212;-76
2022/01/20 03:11:32;;;;;;;25.52;10.30;;;;;;;-5.72;100.00;60210.09;5071454;28;20778;-73
2022/01/20 03:14:03;;;;;;;39.60;14.07;;;;;;;-4.28;100.00;60355.81;5073799;28;20200;-75
2022/01/20 03:16:34;;;;;;;36.95;13.27;;;;;;;-5.85;100.00;60189.00;5073094;28;20254;-75
2022/01/20 03:19:11;;;;;;;19.02;8.25;;;;;;;-5.05;100.00;60270.75;5072719;28;20200;-76
2022/01/20 03:21:43;;;;;;;34.13;12.57;;;;;;;-4.64;100.00;60318.91;5072687;28;20308;-75
2022/01/20 03:24:12;;;;;;;30.45;12.82;;;;;;;-4.43;100.00;60346.00;5072305;28;20234;-75
2022/01/20 03:26:55;;;;;;;20.92;9.60;;;;;;;-4.20;100.00;60369.22;5072413;28;20208;-74
2022/01/20 03:29:22;;;;;;;28.17;11.53;;;;;;;-4.36;100.00;60348.41;5071276;28;20253;-76
2022/01/20 03:31:55;;;;;;;23.52;9.15;;;;;;;-4.14;100.00;60371.06;5072447;28;20449;-74
2022/01/20 03:34:26;;;;;;;19.83;9.35;;;;;;;-5.98;100.00;60183.28;5072212;28;20585;-75
2022/01/20 03:36:57;;;;;;;22.70;10.38;;;;;;;-4.46;100.00;60337.34;5071174;28;20729;-75
2022/01/20 03:39:26;;;;;;;20.65;9.00;;;;;;;-4.28;100.00;60356.84;5072093;28;20270;-74
2022/01/20 03:44:37;;;;;;;22.77;8.38;;;;;;;-5.45;100.00;60238.53;5071413;28;20265;-74
2022/01/20 03:47:07;;;;;;;22.10;8.43;;;;;;;-4.25;100.00;60368.91;5072381;28;20257;-75
2022/01/20 03:49:52;;;;;;;19.02;7.95;;;;;;;-4.22;100.00;60367.09;5072452;28;20204;-74
2022/01/20 03:52:23;;;;;;;18.17;7.90;;;;;;;-4.20;100.00;60371.69;5072020;28;20309;-75
2022/01/20 03:54:50;;;;;;;24.08;9.00;;;;;;;-4.18;100.00;60368.81;5072274;28;20196;-75
2022/01/20 03:57:19;;;;;;;20.75;8.15;;;;;;;-4.25;100.00;60368.91;5072028;28;20223;-75
2022/01/20 03:59:48;;;;;;;27.05;9.60;;;;;;;-4.37;100.00;60347.38;5071986;28;20663;-72
2022/01/20 04:02:16;;;;;;;23.73;10.50;;;;;;;-4.40;100.00;60349.16;5071979;28;20204;-74
2022/01/20 04:04:44;;;;;;;19.67;10.13;;;;;;;-5.61;100.00;60219.22;5072331;28;20215;-76
2022/01/20 04:07:14;;;;;;;93.78;31.85;;;;;;;-5.52;100.00;60236.13;5072379;28;20211;-76
2022/01/20 04:09:44;;;;;;;37.28;15.73;;;;;;;-4.31;100.00;60353.16;5071812;28;20252;-74
2022/01/20 04:12:13;;;;;;;28.30;13.48;;;;;;;-4.37;100.00;60352.34;5072901;28;20203;-76
2022/01/20 04:14:46;;;;;;;29.70;13.77;;;;;;;-5.55;100.00;60223.06;5072290;28;20200;-75
2022/01/20 04:17:21;;;;;;;28.98;12.73;;;;;;;-4.22;100.00;60369.59;5071830;28;20204;-74
2022/01/20 04:19:52;;;;;;;25.98;12.07;;;;;;;-4.24;100.00;60360.00;5077231;28;20195;-75
2022/01/20 04:22:26;;;;;;;29.58;13.10;;;;;;;-4.18;100.00;60368.81;5072105;28;20627;-74
2022/01/20 04:25:12;;;;;;;23.10;11.00;;;;;;;-4.22;100.00;60367.09;5071904;28;20250;-74
2022/01/20 04:27:42;;;;;;;30.42;12.05;;;;;;;-5.57;100.00;60223.94;5071471;28;20208;-73
2022/01/20 04:30:24;;;;;;;23.65;9.25;;;;;;;-4.31;100.00;60356.19;5071580;28;20262;-76
2022/01/20 04:32:52;;;;;;;18.50;9.60;;;;;;;-6.49;100.00;60130.16;5071737;28;20200;-74
2022/01/20 04:35:22;;;;;;;21.42;9.10;;;;;;;-4.49;100.00;60334.72;5071758;28;20204;-75
2022/01/20 04:37:54;;;;;;;27.42;11.20;;;;;;;-4.41;100.00;60348.13;5071486;28;20309;-74
2022/01/20 04:40:41;;;;;;;18.23;8.30;;;;;;;-4.35;100.00;60348.94;5071736;28;20192;-73
2022/01/20 04:43:09;;;;;;;24.35;8.93;;;;;;;-4.95;100.00;60285.72;5071470;28;20270;-75
2022/01/20 04:48:28;;;;;;;37.40;13.07;;;;;;;-4.51;100.00;60332.59;5072191;28;20204;-74
2022/01/20 04:59:24;;;;;;;29.13;10.18;;;;;;;-4.40;100.00;60348.63;5071624;28;20199;-77
2022/01/20 05:01:52;;;;;;;28.67;12.23;;;;;;;-4.54;100.00;60329.44;5071446;28;20208;-75
2022/01/20 05:04:21;;;;;;;34.42;13.27;;;;;;;-4.49;100.00;60337.19;5069923;28;20241;-77
2022/01/20 05:06:48;;;;;;;40.00;15.00;;;;;;;-4.41;100.00;60348.13;5071655;28;20205;-75
2022/01/20 05:09:19;;;;;;;38.53;13.38;;;;;;;-4.64;100.00;60323.88;5073060;28;20230;-76
2022/01/20 05:12:00;;;;;;;37.00;13.05;;;;;;;-4.55;100.00;60332.81;5075764;28;20197;-75
2022/01/20 05:14:32;;;;;;;32.20;13.57;;;;;;;-4.49;100.00;60334.72;5075176;28;20585;-78
2022/01/20 05:17:00;;;;;;;24.70;10.98;;;;;;;-4.47;100.00;60339.31;5073902;28;20204;-78
2022/01/20 05:19:33;;;;;;;27.95;9.65;;;;;;;-4.51;100.00;60332.59;5075816;28;20203;-74
2022/01/20 05:22:01;;;;;;;32.15;11.30;;;;;;;-6.37;100.00;60147.22;5075537;28;20222;-74
2022/01/20 05:24:32;;;;;;;25.83;11.38;;;;;;;-4.31;100.00;60358.66;5075017;28;20642;-74
2022/01/20 05:27:01;;;;;;;91.35;51.20;;;;;;;-4.62;100.00;60321.00;5073666;28;20210;-72
2022/01/20 05:29:30;;;;;;;46.33;22.58;;;;;;;-4.84;100.00;60297.81;5075013;28;20554;-74
2022/01/20 05:32:04;;;;;;;43.70;16.83;;;;;;;-5.01;100.00;60279.91;5074292;28;20204;-75
2022/01/20 05:34:35;;;;;;;39.65;15.90;;;;;;;-5.09;100.00;60273.97;5074452;28;20215;-73
2022/01/20 05:37:03;;;;;;;43.95;17.02;;;;;;;-4.72;100.00;60312.41;5074793;28;20235;-75
2022/01/20 05:39:37;;;;;;;32.28;12.32;;;;;;;-4.64;100.00;60323.34;5074765;28;20317;-76
2022/01/20 05:42:06;;;;;;;41.17;14.50;;;;;;;-4.59;100.00;60323.66;5075233;28;20254;-74
2022/01/20 05:44:50;;;;;;;51.67;19.48;;;;;;;-4.48;100.00;60337.72;5073441;28;20254;-75
2022/01/20 05:47:25;;;;;;;49.17;18.27;;;;;;;-5.39;100.00;60244.84;5074755;28;20290;-76
2022/01/20 05:49:52;;;;;;;61.15;21.35;;;;;;;-4.44;100.00;60344.94;5075195;28;20227;-75
2022/01/20 05:52:21;;;;;;;88.97;29.73;;;;;;;-5.52;100.00;60231.69;5074247;28;20711;-74
2022/01/20 05:54:48;;;;;;;72.03;25.83;;;;;;;-4.85;100.00;60301.75;5074128;28;20207;-76
2022/01/20 05:57:24;;;;;;;79.93;29.27;;;;;;;-5.13;100.00;60267.28;5074546;28;20633;-76
2022/01/20 05:59:54;;;;;;;119.75;41.05;;;;;;;-4.65;100.00;60322.28;5074224;28;20659;-74
2022/01/20 06:02:35;;;;;;;105.50;38.60;;;;;;;-4.91;100.00;60290.47;5073999;28;20208;-73
2022/01/20 06:05:02;;;;;;;94.97;34.40;;;;;;;-6.22;100.00;60158.56;5074042;28;20216;-76
2022/01/20 06:07:32;;;;;;;89.95;34.95;;;;;;;-5.06;100.00;60279.59;5074265;28;20733;-75
2022/01/20 06:09:59;;;;;;;98.15;35.58;;;;;;;-4.96;100.00;60290.16;5072717;28;20200;-75
2022/01/20 06:12:30;;;;;;;38.83;14.65;;;;;;;-4.73;100.00;60316.34;5073943;28;20200;-76
2022/01/20 06:15:22;;;;;;;56.65;19.83;;;;;;;-4.52;100.00;60331.53;5074104;28;20213;-75
2022/01/20 06:17:53;;;;;;;87.60;29.00;;;;;;;-4.22;100.00;60367.59;5073576;28;20239;-76
2022/01/20 06:20:23;;;;;;;37.47;13.52;;;;;;;-3.46;100.00;60442.28;5073116;28;20283;-77
2022/01/20 06:22:51;;;;;;;39.85;15.13;;;;;;;-3.20;100.00;60474.72;5074067;28;20200;-74
2022/01/20 06:25:19;;;;;;;25.98;10.07;;;;;;;-2.54;100.00;60543.88;5073656;28;20258;-73
2022/01/20 06:28:11;;;;;;;31.60;11.33;;;;;;;-1.86;100.00;60610.22;5074639;28;20254;-75
2022/01/20 06:30:44;;;;;;;25.23;9.77;;;;;;;-3.59;100.00;60429.09;5075765;28;20496;-75
2022/01/20 06:33:15;;;;;;;22.17;10.30;;;;;;;-1.53;100.00;60644.59;5075082;28;20835;-75
2022/01/20 06:35:42;;;;;;;25.33;10.77;;;;;;;-2.54;100.00;60538.38;5073736;28;20208;-74
2022/01/20 06:38:18;;;;;;;21.57;9.87;;;;;;;-1.97;100.00;60599.13;5073620;28;20470;-76
2022/01/20 06:40:46;;;;;;;27.83;10.63;;;;;;;-1.94;100.00;60606.75;5073427;28;20446;-75
2022/01/20 06:43:20;;;;;;;23.92;9.43;;;;;;;-1.85;100.00;60616.28;5072290;28;20442;-73
2022/01/20 06:45:52;;;;;;;18.67;8.87;;;;;;;-1.49;100.00;60648.81;5074106;28;20200;-74
2022/01/20 06:48:25;;;;;;;29.20;11.23;;;;;;;-2.61;100.00;60529.00;5073182;28;20651;-74
2022/01/20 06:50:54;;;;;;;17.43;8.47;;;;;;;-2.00;100.00;60600.41;5073204;28;20454;-74
2022/01/20 06:53:21;;;;;;;19.73;9.73;;;;;;;0.10;100.00;60821.63;5073002;28;20458;-78
2022/01/20 06:55:53;;;;;;;27.53;9.60;;;;;;;0.45;100.00;60853.16;5073120;28;20451;-76
2022/01/20 06:58:38;;;;;;;28.77;12.13;;;;;;;0.28;100.00;60835.69;5073367;28;20489;-76
2022/01/20 07:01:05;;;;;;;28.57;12.07;;;;;;;0.44;100.00;60852.09;5072999;28;20953;-75
2022/01/20 07:03:33;;;;;;;24.03;10.37;;;;;;;0.68;100.00;60878.06;5073890;28;20557;-76
2022/01/20 07:06:05;;;;;;;24.10;10.83;;;;;;;0.88;100.00;60900.72;5072406;28;20451;-77
2022/01/20 07:08:32;;;;;;;25.70;11.37;;;;;;;0.98;100.00;60906.31;5071737;28;20443;-76
2022/01/20 07:10:59;;;;;;;31.30;10.67;;;;;;;1.29;100.00;60944.22;5073630;28;20843;-76
2022/01/20 07:13:38;;;;;;;26.83;12.57;;;;;;;1.14;100.00;60926.31;5072794;28;20427;-75
2022/01/20 07:16:09;;;;;;;20.97;11.43;;;;;;;1.43;100.00;60959.06;5072788;28;20971;-74
2022/01/20 07:18:36;;;;;;;28.67;12.00;;;;;;;1.45;100.00;60958.69;5072875;28;20967;-75
2022/01/20 07:21:04;;;;;;;26.33;11.53;;;;;;;2.11;100.00;61031.25;5072838;28;20447;-74
2022/01/20 07:23:33;;;;;;;25.53;11.70;;;;;;;3.08;100.00;61133.22;5072350;28;21015;-75
2022/01/20 07:26:01;;;;;;;26.57;11.13;;;;;;;3.80;100.00;61206.75;5072465;28;20451;-75
2022/01/20 07:28:33;;;;;;;27.33;10.93;;;;;;;4.19;100.00;61248.75;5073245;28;20444;-75
2022/01/20 07:31:00;;;;;;;24.13;12.80;;;;;;;4.59;100.00;61290.78;5072151;28;20951;-76
2022/01/20 07:33:30;;;;;;;19.93;10.60;;;;;;;4.64;100.00;61301.19;5072838;28;20446;-74
2022/01/20 07:36:01;;;;;;;26.60;11.43;;;;;;;3.34;100.00;61160.88;5072477;28;20577;-76
2022/01/20 07:38:33;;;;;;;26.43;12.33;;;;;;;4.46;100.00;61282.00;5072239;28;20471;-73
2022/01/20 07:41:00;;;;;;;31.27;12.47;;;;;;;2.85;100.00;61106.81;5072313;28;20972;-75
2022/01/20 07:43:28;;;;;;;28.57;12.23;;;;;;;3.74;100.00;61205.41;5071993;28;20822;-74
2022/01/20 07:45:58;;;;;;;23.57;11.37;;;;;;;2.91;100.00;61117.66;5071987;28;20976;-75
2022/01/20 07:48:30;;;;;;;25.40;12.23;;;;;;;3.60;100.00;61186.00;5072463;28;20434;-73
2022/01/20 07:51:00;;;;;;;27.07;12.57;;;;;;;3.90;100.00;61220.44;5071553;28;20549;-75
2022/01/20 07:53:28;;;;;;;21.57;11.93;;;;;;;4.66;100.00;61297.72;5072876;28;20463;-74
2022/01/20 07:55:58;;;;;;;25.53;11.93;;;;;;;4.01;100.00;61234.66;5071948;28;20446;-74
2022/01/20 07:58:26;;;;;;;34.40;12.23;;;;;;;3.68;100.00;61199.56;5072455;28;20435;-74
2022/01/20 08:00:53;;;;;;;22.37;10.93;;;;;;;3.38;100.00;61162.59;5071993;28;20446;-73
2022/01/20 08:03:22;;;;;;;21.47;11.20;;;;;;;1.66;100.00;60981.50;5071385;28;20450;-74
2022/01/20 08:05:55;;;;;;;29.60;11.60;;;;;;;1.76;100.00;60994.06;5071626;28;20523;-75
2022/01/20 08:08:23;;;;;;;24.80;11.60;;;;;;;3.59;100.00;61189.44;5071861;28;20581;-75
2022/01/20 08:10:55;;;;;;;23.73;12.17;;;;;;;2.71;100.00;61088.88;5070844;28;20449;-72
2022/01/20 08:13:23;;;;;;;23.77;12.47;;;;;;;3.56;100.00;61186.25;5072494;28;20836;-75
2022/01/20 08:15:50;;;;;;;26.30;12.03;;;;;;;2.60;100.00;61084.75;5070444;28;20447;-75
2022/01/20 08:18:19;;;;;;;27.13;12.50;;;;;;;1.23;100.00;60932.84;5071672;28;20435;-74
2022/01/20 08:20:47;;;;;;;26.43;12.23;;;;;;;2.51;100.00;61073.19;5072258;28;20511;-73
2022/01/20 08:23:14;;;;;;;28.73;11.70;;;;;;;1.31;100.00;60943.81;5071524;28;20445;-74
2022/01/20 08:25:49;;;;;;;30.20;11.73;;;;;;;1.39;100.00;60962.34;5071892;28;20866;-75
2022/01/20 08:28:21;;;;;;;32.37;13.37;;;;;;;2.43;100.00;61062.72;5071581;28;20454;-76
2022/01/20 08:30:50;;;;;;;24.73;11.83;;;;;;;2.10;100.00;61027.66;5071325;28;21043;-76
2022/01/20 08:33:20;;;;;;;30.17;13.30;;;;;;;2.45;100.00;61069.88;5071953;28;20492;-74
2022/01/20 08:35:48;;;;;;;30.10;11.97;;;;;;;1.00;100.00;60915.94;5071753;28;20465;-72
2022/01/20 08:38:16;;;;;;;28.23;11.67;;;;;;;1.97;100.00;61018.91;5071616;28;20519;-76
2022/01/20 08:40:43;;;;;;;32.47;12.20;;;;;;;1.60;100.00;60977.09;5071452;28;20485;-75
2022/01/20 08:43:10;;;;;;;29.93;12.50;;;;;;;1.39;100.00;60954.81;5074786;28;20442;-71
2022/01/20 08:45:39;;;;;;;32.33;12.67;;;;;;;1.55;100.00;60974.31;5077752;28;20482;-75
2022/01/20 08:48:11;;;;;;;24.90;11.57;;;;;;;0.35;100.00;60848.09;5075374;28;20529;-76
2022/01/20 08:50:39;;;;;;;31.60;12.20;;;;;;;1.63;100.00;60980.28;5074812;28;20438;-76
2022/01/20 08:53:08;;;;;;;30.10;12.00;;;;;;;1.43;100.00;60956.56;5073788;28;20474;-73
2022/01/20 08:55:37;;;;;;;27.47;12.07;;;;;;;0.67;100.00;60881.47;5075350;28;20434;-74
2022/01/20 08:58:05;;;;;;;25.17;12.17;;;;;;;1.23;100.00;60935.34;5075447;28;20434;-75
2022/01/20 09:00:35;;;;;;;27.43;11.87;;;;;;;1.07;100.00;60930.91;5075419;28;20446;-73
2022/01/20 09:03:09;;;;;;;23.80;12.30;;;;;;;1.32;100.00;60947.38;5075769;28;20963;-76
2022/01/20 09:05:41;;;;;;;34.10;11.40;;;;;;;1.13;100.00;60925.25;5074177;28;20482;-75
2022/01/20 09:08:12;;;;;;;33.10;12.17;;;;;;;1.52;100.00;60968.59;5075291;28;20463;-74
2022/01/20 09:10:51;;;;;;;46.97;12.47;;;;;;;1.74;100.00;60994.47;5075597;28;20852;-75
2022/01/20 09:16:05;;;;;;;31.57;12.30;;;;;;;2.14;100.00;61039.44;5075037;28;20426;-75
2022/01/20 09:18:34;;;;;;;29.57;11.77;;;;;;;1.56;100.00;60975.38;5074863;28;20855;-75
2022/01/20 09:21:01;;;;;;;37.00;12.57;;;;;;;1.72;100.00;60992.34;5073380;28;20439;-73
2022/01/20 09:23:29;;;;;;;32.63;12.53;;;;;;;1.27;100.00;60939.59;5074807;28;20449;-76
2022/01/20 09:25:58;;;;;;;28.73;11.93;;;;;;;1.74;100.00;60989.44;5074581;28;20834;-77
2022/01/20 09:28:29;;;;;;;49.10;12.93;;;;;;;2.01;100.00;61018.13;5073447;28;20450;-76
2022/01/20 09:31:01;;;;;;;34.27;12.63;;;;;;;0.67;100.00;60877.00;5074590;28;20837;-74
2022/01/20 09:33:29;;;;;;;40.60;11.47;;;;;;;2.21;100.00;61043.84;5074479;28;20527;-73
2022/01/20 09:35:59;;;;;;;31.17;10.73;;;;;;;2.11;100.00;61033.22;5074981;28;20437;-74
2022/01/20 09:38:27;;;;;;;32.83;11.43;;;;;;;2.43;100.00;61067.75;5074410;28;20481;-74
2022/01/20 09:40:56;;;;;;;37.30;12.03;;;;;;;2.41;100.00;61063.09;5074675;28;20474;-75
2022/01/20 09:43:25;;;;;;;39.17;13.37;;;;;;;2.76;100.00;61096.72;5074490;28;20446;-76
2022/01/20 09:45:55;;;;;;;27.87;11.17;;;;;;;2.55;100.00;61077.97;5074162;28;20474;-74
2022/01/20 09:48:26;;;;;;;35.07;12.50;;;;;;;2.30;100.00;61050.88;5074507;28;20537;-75
2022/01/20 09:50:54;;;;;;;32.93;12.17;;;;;;;1.84;100.00;60997.53;5072137;28;20504;-74
2022/01/20 09:53:28;;;;;;;32.40;10.60;;;;;;;3.13;100.00;61136.03;5074179;28;20591;-76
2022/01/20 09:56:06;;;;;;;45.97;13.47;;;;;;;3.32;100.00;61161.25;5074497;28;20520;-76
2022/01/20 09:58:35;;;;;;;34.10;11.93;;;;;;;2.67;100.00;61095.22;5074226;28;20450;-74
2022/01/20 10:01:06;;;;;;;33.83;11.10;;;;;;;3.44;100.00;61172.03;5074211;28;20455;-73
2022/01/20 10:03:41;;;;;;;29.13;10.40;;;;;;;3.56;100.00;61186.25;5073089;28;20439;-75
2022/01/20 10:06:10;;;;;;;31.67;12.23;;;;;;;3.62;100.00;61188.13;5074282;28;20865;-73
2022/01/20 10:08:39;;;;;;;30.03;11.77;;;;;;;2.59;100.00;61086.72;5074044;28;20439;-73
2022/01/20 10:11:19;;;;;;;30.37;11.23;;;;;;;4.05;100.00;61238.91;5073980;28;20496;-75
2022/01/20 10:13:49;;;;;;;35.37;11.33;;;;;;;3.13;100.00;61136.03;5073949;28;20434;-74
2022/01/20 10:16:18;;;;;;;46.93;12.97;;;;;;;4.51;100.00;61287.31;5074085;28;20492;-74
2022/01/20 10:18:50;;;;;;;25.80;12.10;;;;;;;4.46;100.00;61278.94;5073904;28;20522;-74
2022/01/20 10:21:20;;;;;;;31.60;11.93;;;;;;;4.59;100.00;61290.28;5073562;28;20494;-74
2022/01/20 10:23:51;;;;;;;31.73;10.60;;;;;;;4.76;100.00;61308.91;5073921;28;20442;-74
2022/01/20 10:26:22;;;;;;;36.57;11.83;;;;;;;4.90;100.00;61323.81;5073508;28;20949;-74
2022/01/20 10:29:21;;;;;;;33.90;11.90;;;;;;;5.05;100.00;61339.25;5073705;28;20438;-76
2022/01/20 10:31:51;;;;;;;36.23;12.47;;;;;;;3.94;100.00;61232.25;5073682;28;20546;-75
2022/01/20 10:34:30;;;;;;;31.47;11.73;;;;;;;5.37;100.00;61373.34;5074067;28;20431;-74
2022/01/20 10:36:59;;;;;;;37.50;11.97;;;;;;;4.60;100.00;61293.84;5073484;28;20543;-74
2022/01/20 10:39:35;;;;;;;51.50;13.03;;;;;;;6.32;100.00;61478.63;5073460;28;20438;-76
2022/01/20 10:42:07;;;;;;;38.27;12.93;;;;;;;7.13;100.00;61562.53;5073227;28;20430;-76
2022/01/20 10:44:54;;;;;;;34.67;12.10;;;;;;;8.02;100.00;61656.50;5073247;28;20828;-78
2022/01/20 10:47:26;;;;;;;28.00;12.60;;;;;;;8.41;94.35;61696.19;5073578;28;20434;-76
2022/01/20 10:49:57;;;;;;;37.30;12.57;;;;;;;8.77;84.37;61734.16;5073678;28;20495;-74
2022/01/20 10:52:44;;;;;;;29.20;11.37;;;;;;;9.71;80.72;61833.63;5073628;28;20458;-75
2022/01/20 10:55:42;;;;;;;32.63;11.50;;;;;;;9.75;76.90;61840.47;5074819;28;20496;-75
2022/01/20 10:58:15;;;;;;;31.87;10.00;;;;;;;9.74;74.23;61839.41;5073259;28;20462;-75
2022/01/20 11:00:44;;;;;;;30.93;11.73;;;;;;;11.45;75.50;62021.53;5073814;28;20477;-75
2022/01/20 11:03:11;;;;;;;24.83;11.17;;;;;;;11.92;66.95;62074.50;5071455;28;20914;-75
2022/01/20 11:05:40;;;;;;;27.03;11.70;;;;;;;10.52;60.47;61915.31;5072514;28;20368;-76
2022/01/20 11:08:08;;;;;;;25.63;11.33;;;;;;;11.65;58.78;62040.97;5072627;28;20582;-75
2022/01/20 11:13:25;;;;;;;28.47;11.67;;;;;;;12.52;52.13;62136.34;5072690;28;20277;-75
2022/01/20 11:15:53;;;;;;;27.97;11.63;;;;;;;12.14;52.15;62090.44;5073426;28;20196;-75
2022/01/20 11:18:28;;;;;;;24.97;11.50;;;;;;;13.26;50.25;62212.19;5072712;28;20289;-75
2022/01/20 11:21:02;;;;;;;37.30;12.63;;;;;;;12.54;49.33;62140.50;5072987;28;20192;-75
2022/01/20 11:23:42;;;;;;;35.50;12.20;;;;;;;12.63;47.56;62155.81;5072683;28;20232;-75
2022/01/20 11:26:11;;;;;;;34.37;11.77;;;;;;;13.33;46.66;62222.25;5072478;28;20228;-76
2022/01/20 11:28:58;;;;;;;40.20;11.50;;;;;;;12.97;46.57;62186.13;5072462;28;20200;-75
2022/01/20 11:31:34;;;;;;;27.97;11.53;;;;;;;11.59;47.33;62036.56;5071134;28;20655;-76
2022/01/20 11:34:02;;;;;;;35.30;11.33;;;;;;;12.31;48.18;62116.38;5071184;28;20655;-74
2022/01/20 11:36:35;;;;;;;26.13;10.37;;;;;;;12.74;47.63;62151.75;5072472;28;20201;-76
2022/01/20 11:39:08;;;;;;;29.77;11.47;;;;;;;13.31;46.42;62217.53;5072348;28;20699;-76
2022/01/20 11:41:40;;;;;;;35.53;12.20;;;;;;;13.84;43.70;62274.50;5072257;28;20556;-75
2022/01/20 11:44:27;;;;;;;40.20;11.40;;;;;;;14.31;44.35;62325.03;5072253;28;20228;-75
2022/01/20 11:47:04;;;;;;;32.70;10.90;;;;;;;15.23;43.04;62425.50;5072127;28;20227;-75
2022/01/20 11:49:38;;;;;;;40.07;12.07;;;;;;;14.88;40.69;62385.25;5072482;28;20200;-74
2022/01/20 11:52:05;;;;;;;32.47;11.43;;;;;;;13.30;41.51;62213.94;5072364;28;20216;-75
2022/01/20 11:54:35;;;;;;;29.57;10.47;;;;;;;13.64;42.35;62250.44;5072299;28;20204;-75
2022/01/20 11:57:11;;;;;;;29.20;11.80;;;;;;;13.36;43.14;62228.03;5072395;28;20200;-75
2022/01/20 11:59:44;;;;;;;24.40;9.47;;;;;;;12.64;43.44;62151.78;5071478;28;20222;-75
2022/01/20 12:02:24;;;;;;;39.73;10.87;;;;;;;13.41;43.80;62231.38;5072214;28;20208;-76
2022/01/20 12:04:56;;;;;;;25.03;9.00;;;;;;;14.29;42.66;62322.88;5072178;28;20270;-75
2022/01/20 12:07:31;;;;;;;20.27;9.10;;;;;;;15.26;40.98;62426.13;5072080;28;20287;-75
2022/01/20 12:10:12;;;;;;;16.83;9.23;;;;;;;15.54;38.98;62456.28;5072246;28;20196;-75
2022/01/20 12:12:43;;;;;;;23.20;9.53;;;;;;;16.03;39.48;62511.09;5071955;28;20200;-75
2022/01/20 12:15:26;;;;;;;38.50;9.33;;;;;;;15.90;38.43;62495.06;5071970;28;20211;-76
2022/01/20 12:17:58;;;;;;;9.90;5.30;;;;;;;15.76;38.11;62482.56;5070386;28;20203;-76
2022/01/20 12:20:27;;;;;;;6.57;2.77;;;;;;;15.63;36.51;62466.00;5072758;28;20283;-75
2022/01/20 12:22:58;;;;;;;6.33;2.60;;;;;;;15.75;35.86;62484.06;5072555;28;20200;-74
2022/01/20 12:25:27;;;;;;;8.80;2.83;;;;;;;16.57;34.95;62568.75;5071859;28;20232;-75
2022/01/20 12:28:04;;;;;;;5.27;2.87;;;;;;;15.88;34.32;62497.50;5072113;28;20204;-75
2022/01/20 12:30:49;;;;;;;4.47;2.40;;;;;;;16.23;34.04;62529.53;5071739;28;20196;-77
2022/01/20 12:33:22;;;;;;;6.13;2.70;;;;;;;14.49;34.37;62348.44;5072011;28;20291;-76
2022/01/20 12:35:53;;;;;;;5.53;2.67;;;;;;;14.04;35.38;62301.13;5070728;28;20218;-75
2022/01/20 12:38:26;;;;;;;3.17;2.00;;;;;;;15.26;35.33;62431.28;5071494;28;20662;-75
2022/01/20 12:41:01;;;;;;;14.57;3.20;;;;;;;15.00;36.47;62398.16;5071760;28;20208;-75
2022/01/20 12:43:44;;;;;;;3.07;2.20;;;;;;;14.75;37.35;62376.41;5070387;28;20205;-75